sensor_id;sensor_type;location;lat;lon;timestamp;P1;durP1;ratioP1;P2;durP2;ratioP2
7523;SDS011;3803;51.666;7.630;2023-12-22T00:00:00;8.70;;;2.30;;
7523;SDS011;3803;51.666;7.630;2023-12-22T00:00:21;9.30;;;2.15;;
7523;SDS011;3803;51.666;7.630;2023-12-22T00:00:42;7.15;;;1.90;;
7523;SDS011;3803;51.666;7.630;2023-12-22T00:01:02;4.75;;;2.10;;
7523;SDS011;3803;51.666;7.630;2023-12-22T00:01:24;4.07;;;2.20;;
7523;SDS011;3803;51.666;7.630;2023-12-22T00:01:44;4.00;;;2.20;;
7523;SDS011;3803;51.666;7.630;2023-12-22T00:02:05;2.93;;;1.90;;
7523;SDS011;3803;51.666;7.630;2023-12-22T00:02:26;4.30;;;1.83;;
7523;SDS011;3803;51.666;7.630;2023-12-22T00:02:48;3.80;;;1.60;;
7523;SDS011;3803;51.666;7.630;2023-12-22T00:03:09;6.07;;;1.70;;
7523;SDS011;3803;51.666;7.630;2023-12-22T00:03:30;5.00;;;1.70;;
7523;SDS011;3803;51.666;7.630;2023-12-22T00:03:50;5.43;;;1.92;;
7523;SDS011;3803;51.666;7.630;2023-12-22T00:04:11;5.80;;;2.20;;
7523;SDS011;3803;51.666;7.630;2023-12-22T00:04:33;6.20;;;2.05;;
7523;SDS011;3803;51.666;7.630;2023-12-22T00:04:54;7.90;;;2.10;;
7523;SDS011;3803;51.666;7.630;2023-12-22T00:05:14;7.80;;;2.00;;
7523;SDS011;3803;51.666;7.630;2023-12-22T00:05:35;6.28;;;1.90;;
7523;SDS011;3803;51.666;7.630;2023-12-22T00:05:56;5.07;;;2.00;;
7523;SDS011;3803;51.666;7.630;2023-12-22T00:06:16;4.77;;;1.87;;
7523;SDS011;3803;51.666;7.630;2023-12-22T00:06:39;4.80;;;2.00;;
7523;SDS011;3803;51.666;7.630;2023-12-22T00:07:00;4.70;;;1.92;;
7523;SDS011;3803;51.666;7.630;2023-12-22T00:07:21;4.73;;;2.00;;
7523;SDS011;3803;51.666;7.630;2023-12-22T00:07:42;7.40;;;2.07;;
7523;SDS011;3803;51.666;7.630;2023-12-22T00:08:03;7.95;;;2.03;;
7523;SDS011;3803;51.666;7.630;2023-12-22T00:08:23;6.78;;;1.80;;
7523;SDS011;3803;51.666;7.630;2023-12-22T00:08:44;4.70;;;1.80;;
7523;SDS011;3803;51.666;7.630;2023-12-22T00:09:05;7.05;;;2.03;;
7523;SDS011;3803;51.666;7.630;2023-12-22T00:09:26;7.00;;;2.00;;
7523;SDS011;3803;51.666;7.630;2023-12-22T00:09:46;6.30;;;2.03;;
7523;SDS011;3803;51.666;7.630;2023-12-22T00:10:07;2.92;;;1.70;;
7523;SDS011;3803;51.666;7.630;2023-12-22T00:10:29;3.13;;;1.70;;
7523;SDS011;3803;51.666;7.630;2023-12-22T00:10:50;4.20;;;1.92;;
7523;SDS011;3803;51.666;7.630;2023-12-22T00:11:11;6.90;;;2.30;;
7523;SDS011;3803;51.666;7.630;2023-12-22T00:11:31;10.07;;;2.58;;
7523;SDS011;3803;51.666;7.630;2023-12-22T00:11:52;9.13;;;2.40;;
7523;SDS011;3803;51.666;7.630;2023-12-22T00:12:13;8.65;;;2.20;;
7523;SDS011;3803;51.666;7.630;2023-12-22T00:12:33;5.22;;;2.00;;
7523;SDS011;3803;51.666;7.630;2023-12-22T00:12:54;5.00;;;1.90;;
7523;SDS011;3803;51.666;7.630;2023-12-22T00:13:15;2.30;;;1.65;;
7523;SDS011;3803;51.666;7.630;2023-12-22T00:13:35;4.00;;;1.70;;
7523;SDS011;3803;51.666;7.630;2023-12-22T00:13:56;5.97;;;2.10;;
7523;SDS011;3803;51.666;7.630;2023-12-22T00:14:17;7.30;;;2.20;;
7523;SDS011;3803;51.666;7.630;2023-12-22T00:14:37;5.03;;;2.00;;
7523;SDS011;3803;51.666;7.630;2023-12-22T00:15:03;5.43;;;2.05;;
7523;SDS011;3803;51.666;7.630;2023-12-22T00:15:24;4.50;;;2.10;;
7523;SDS011;3803;51.666;7.630;2023-12-22T00:15:45;6.10;;;2.20;;
7523;SDS011;3803;51.666;7.630;2023-12-22T00:16:06;4.93;;;2.00;;
7523;SDS011;3803;51.666;7.630;2023-12-22T00:16:26;4.73;;;1.90;;
7523;SDS011;3803;51.666;7.630;2023-12-22T00:16:47;4.33;;;1.90;;
7523;SDS011;3803;51.666;7.630;2023-12-22T00:17:07;5.93;;;2.30;;
7523;SDS011;3803;51.666;7.630;2023-12-22T00:17:28;6.13;;;2.60;;
7523;SDS011;3803;51.666;7.630;2023-12-22T00:17:52;7.72;;;3.00;;
7523;SDS011;3803;51.666;7.630;2023-12-22T00:18:13;5.80;;;2.30;;
7523;SDS011;3803;51.666;7.630;2023-12-22T00:18:33;6.18;;;2.25;;
7523;SDS011;3803;51.666;7.630;2023-12-22T00:18:54;4.70;;;1.90;;
7523;SDS011;3803;51.666;7.630;2023-12-22T00:19:16;7.50;;;2.20;;
7523;SDS011;3803;51.666;7.630;2023-12-22T00:19:37;10.43;;;2.42;;
7523;SDS011;3803;51.666;7.630;2023-12-22T00:19:57;7.90;;;2.57;;
7523;SDS011;3803;51.666;7.630;2023-12-22T00:20:22;8.13;;;2.33;;
7523;SDS011;3803;51.666;7.630;2023-12-22T00:20:42;6.63;;;2.03;;
7523;SDS011;3803;51.666;7.630;2023-12-22T00:21:03;7.32;;;2.10;;
7523;SDS011;3803;51.666;7.630;2023-12-22T00:21:24;7.40;;;2.20;;
7523;SDS011;3803;51.666;7.630;2023-12-22T00:21:45;7.85;;;2.38;;
7523;SDS011;3803;51.666;7.630;2023-12-22T00:22:05;6.30;;;2.10;;
7523;SDS011;3803;51.666;7.630;2023-12-22T00:22:26;8.32;;;2.00;;
7523;SDS011;3803;51.666;7.630;2023-12-22T00:22:47;8.90;;;2.00;;
7523;SDS011;3803;51.666;7.630;2023-12-22T00:23:08;8.37;;;1.90;;
7523;SDS011;3803;51.666;7.630;2023-12-22T00:23:28;5.93;;;2.20;;
7523;SDS011;3803;51.666;7.630;2023-12-22T00:23:49;3.90;;;1.98;;
7523;SDS011;3803;51.666;7.630;2023-12-22T00:24:10;4.27;;;2.00;;
7523;SDS011;3803;51.666;7.630;2023-12-22T00:24:30;3.60;;;1.67;;
7523;SDS011;3803;51.666;7.630;2023-12-22T00:24:51;4.25;;;1.80;;
7523;SDS011;3803;51.666;7.630;2023-12-22T00:25:12;6.10;;;2.00;;
7523;SDS011;3803;51.666;7.630;2023-12-22T00:25:32;5.30;;;1.90;;
7523;SDS011;3803;51.666;7.630;2023-12-22T00:25:53;5.85;;;1.88;;
7523;SDS011;3803;51.666;7.630;2023-12-22T00:26:14;6.90;;;1.90;;
7523;SDS011;3803;51.666;7.630;2023-12-22T00:26:35;7.82;;;2.00;;
7523;SDS011;3803;51.666;7.630;2023-12-22T00:26:56;7.32;;;2.00;;
7523;SDS011;3803;51.666;7.630;2023-12-22T00:27:16;9.35;;;2.08;;
7523;SDS011;3803;51.666;7.630;2023-12-22T00:27:37;9.98;;;2.20;;
7523;SDS011;3803;51.666;7.630;2023-12-22T00:27:58;9.20;;;2.27;;
7523;SDS011;3803;51.666;7.630;2023-12-22T00:28:18;6.70;;;2.35;;
7523;SDS011;3803;51.666;7.630;2023-12-22T00:28:39;7.30;;;2.25;;
7523;SDS011;3803;51.666;7.630;2023-12-22T00:29:00;7.18;;;2.10;;
7523;SDS011;3803;51.666;7.630;2023-12-22T00:29:21;4.73;;;1.63;;
7523;SDS011;3803;51.666;7.630;2023-12-22T00:29:41;4.00;;;1.98;;
7523;SDS011;3803;51.666;7.630;2023-12-22T00:30:02;3.83;;;2.03;;
7523;SDS011;3803;51.666;7.630;2023-12-22T00:30:26;4.68;;;2.00;;
7523;SDS011;3803;51.666;7.630;2023-12-22T00:30:50;4.45;;;1.55;;
7523;SDS011;3803;51.666;7.630;2023-12-22T00:31:10;4.93;;;1.60;;
7523;SDS011;3803;51.666;7.630;2023-12-22T00:31:32;6.25;;;1.75;;
7523;SDS011;3803;51.666;7.630;2023-12-22T00:31:53;9.20;;;2.00;;
7523;SDS011;3803;51.666;7.630;2023-12-22T00:32:14;9.30;;;2.00;;
7523;SDS011;3803;51.666;7.630;2023-12-22T00:32:34;7.70;;;1.85;;
7523;SDS011;3803;51.666;7.630;2023-12-22T00:32:55;6.38;;;2.10;;
7523;SDS011;3803;51.666;7.630;2023-12-22T00:33:16;7.00;;;2.10;;
7523;SDS011;3803;51.666;7.630;2023-12-22T00:33:36;10.40;;;2.22;;
7523;SDS011;3803;51.666;7.630;2023-12-22T00:33:57;9.70;;;2.08;;
7523;SDS011;3803;51.666;7.630;2023-12-22T00:34:17;8.57;;;2.20;;
7523;SDS011;3803;51.666;7.630;2023-12-22T00:34:39;4.90;;;2.10;;
7523;SDS011;3803;51.666;7.630;2023-12-22T00:35:00;4.60;;;1.95;;
7523;SDS011;3803;51.666;7.630;2023-12-22T00:35:21;4.50;;;1.80;;
7523;SDS011;3803;51.666;7.630;2023-12-22T00:35:41;3.70;;;1.80;;
7523;SDS011;3803;51.666;7.630;2023-12-22T00:36:05;2.72;;;1.75;;
7523;SDS011;3803;51.666;7.630;2023-12-22T00:36:26;4.10;;;1.80;;
7523;SDS011;3803;51.666;7.630;2023-12-22T00:36:47;4.38;;;1.65;;
7523;SDS011;3803;51.666;7.630;2023-12-22T00:37:07;4.55;;;1.85;;
7523;SDS011;3803;51.666;7.630;2023-12-22T00:37:28;7.10;;;1.97;;
7523;SDS011;3803;51.666;7.630;2023-12-22T00:37:48;7.25;;;2.00;;
7523;SDS011;3803;51.666;7.630;2023-12-22T00:38:12;6.50;;;1.90;;
7523;SDS011;3803;51.666;7.630;2023-12-22T00:38:33;7.00;;;2.00;;
7523;SDS011;3803;51.666;7.630;2023-12-22T00:38:54;7.97;;;2.38;;
7523;SDS011;3803;51.666;7.630;2023-12-22T00:39:14;8.10;;;2.33;;
7523;SDS011;3803;51.666;7.630;2023-12-22T00:39:35;6.60;;;2.30;;
7523;SDS011;3803;51.666;7.630;2023-12-22T00:39:56;5.25;;;1.95;;
7523;SDS011;3803;51.666;7.630;2023-12-22T00:40:16;5.53;;;2.10;;
7523;SDS011;3803;51.666;7.630;2023-12-22T00:40:37;3.10;;;1.70;;
7523;SDS011;3803;51.666;7.630;2023-12-22T00:40:58;3.42;;;1.60;;
7523;SDS011;3803;51.666;7.630;2023-12-22T00:41:18;4.63;;;1.70;;
7523;SDS011;3803;51.666;7.630;2023-12-22T00:41:39;6.00;;;1.77;;
7523;SDS011;3803;51.666;7.630;2023-12-22T00:42:00;6.35;;;2.10;;
7523;SDS011;3803;51.666;7.630;2023-12-22T00:42:21;8.52;;;2.28;;
7523;SDS011;3803;51.666;7.630;2023-12-22T00:42:42;8.50;;;2.45;;
7523;SDS011;3803;51.666;7.630;2023-12-22T00:43:03;7.97;;;2.00;;
7523;SDS011;3803;51.666;7.630;2023-12-22T00:43:23;5.00;;;1.67;;
7523;SDS011;3803;51.666;7.630;2023-12-22T00:43:45;5.38;;;1.70;;
7523;SDS011;3803;51.666;7.630;2023-12-22T00:44:24;8.15;;;1.95;;
7523;SDS011;3803;51.666;7.630;2023-12-22T00:44:58;3.58;;;1.60;;
7523;SDS011;3803;51.666;7.630;2023-12-22T00:45:22;5.00;;;1.93;;
7523;SDS011;3803;51.666;7.630;2023-12-22T00:45:43;4.10;;;1.60;;
7523;SDS011;3803;51.666;7.630;2023-12-22T00:46:03;4.70;;;1.63;;
7523;SDS011;3803;51.666;7.630;2023-12-22T00:46:24;4.40;;;1.60;;
7523;SDS011;3803;51.666;7.630;2023-12-22T00:46:45;4.80;;;1.60;;
7523;SDS011;3803;51.666;7.630;2023-12-22T00:47:05;5.00;;;1.70;;
7523;SDS011;3803;51.666;7.630;2023-12-22T00:47:26;5.00;;;2.07;;
7523;SDS011;3803;51.666;7.630;2023-12-22T00:47:47;6.10;;;2.30;;
7523;SDS011;3803;51.666;7.630;2023-12-22T00:48:07;5.80;;;2.22;;
7523;SDS011;3803;51.666;7.630;2023-12-22T00:48:28;5.13;;;1.70;;
7523;SDS011;3803;51.666;7.630;2023-12-22T00:48:49;4.20;;;1.80;;
7523;SDS011;3803;51.666;7.630;2023-12-22T00:49:09;4.28;;;1.80;;
7523;SDS011;3803;51.666;7.630;2023-12-22T00:49:48;4.25;;;2.00;;
7523;SDS011;3803;51.666;7.630;2023-12-22T00:50:27;5.13;;;1.60;;
7523;SDS011;3803;51.666;7.630;2023-12-22T00:51:06;7.88;;;1.55;;
7523;SDS011;3803;51.666;7.630;2023-12-22T00:51:46;6.85;;;1.85;;
7523;SDS011;3803;51.666;7.630;2023-12-22T00:52:07;2.70;;;1.63;;
7523;SDS011;3803;51.666;7.630;2023-12-22T00:52:28;2.95;;;1.75;;
7523;SDS011;3803;51.666;7.630;2023-12-22T00:52:48;5.35;;;1.88;;
7523;SDS011;3803;51.666;7.630;2023-12-22T00:53:09;5.60;;;2.00;;
7523;SDS011;3803;51.666;7.630;2023-12-22T00:53:30;8.55;;;2.00;;
7523;SDS011;3803;51.666;7.630;2023-12-22T00:53:50;6.97;;;2.00;;
7523;SDS011;3803;51.666;7.630;2023-12-22T00:54:11;6.72;;;1.98;;
7523;SDS011;3803;51.666;7.630;2023-12-22T00:54:32;3.20;;;1.77;;
7523;SDS011;3803;51.666;7.630;2023-12-22T00:54:52;3.00;;;1.60;;
7523;SDS011;3803;51.666;7.630;2023-12-22T00:55:13;6.22;;;1.73;;
7523;SDS011;3803;51.666;7.630;2023-12-22T00:55:34;6.15;;;1.88;;
7523;SDS011;3803;51.666;7.630;2023-12-22T00:55:54;4.18;;;1.73;;
7523;SDS011;3803;51.666;7.630;2023-12-22T00:56:15;2.57;;;1.63;;
7523;SDS011;3803;51.666;7.630;2023-12-22T00:56:36;6.73;;;1.60;;
7523;SDS011;3803;51.666;7.630;2023-12-22T00:56:57;10.40;;;1.70;;
7523;SDS011;3803;51.666;7.630;2023-12-22T00:57:18;9.40;;;1.67;;
7523;SDS011;3803;51.666;7.630;2023-12-22T00:57:41;6.13;;;1.90;;
7523;SDS011;3803;51.666;7.630;2023-12-22T00:58:02;3.95;;;2.10;;
7523;SDS011;3803;51.666;7.630;2023-12-22T00:58:23;4.40;;;2.03;;
7523;SDS011;3803;51.666;7.630;2023-12-22T00:58:44;5.32;;;2.05;;
7523;SDS011;3803;51.666;7.630;2023-12-22T00:59:05;9.00;;;2.20;;
7523;SDS011;3803;51.666;7.630;2023-12-22T00:59:25;10.80;;;2.30;;
7523;SDS011;3803;51.666;7.630;2023-12-22T00:59:46;8.07;;;1.85;;
7523;SDS011;3803;51.666;7.630;2023-12-22T01:00:08;4.50;;;1.60;;
7523;SDS011;3803;51.666;7.630;2023-12-22T01:00:32;2.10;;;1.40;;
7523;SDS011;3803;51.666;7.630;2023-12-22T01:00:53;2.33;;;1.60;;
7523;SDS011;3803;51.666;7.630;2023-12-22T01:01:13;3.17;;;1.57;;
7523;SDS011;3803;51.666;7.630;2023-12-22T01:01:34;4.13;;;1.73;;
7523;SDS011;3803;51.666;7.630;2023-12-22T01:01:54;6.60;;;1.92;;
7523;SDS011;3803;51.666;7.630;2023-12-22T01:02:15;8.75;;;2.13;;
7523;SDS011;3803;51.666;7.630;2023-12-22T01:02:37;8.73;;;1.83;;
7523;SDS011;3803;51.666;7.630;2023-12-22T01:02:58;6.15;;;1.83;;
7523;SDS011;3803;51.666;7.630;2023-12-22T01:03:19;4.90;;;1.80;;
7523;SDS011;3803;51.666;7.630;2023-12-22T01:03:39;4.93;;;1.90;;
7523;SDS011;3803;51.666;7.630;2023-12-22T01:04:00;5.13;;;1.80;;
7523;SDS011;3803;51.666;7.630;2023-12-22T01:04:21;10.48;;;2.00;;
7523;SDS011;3803;51.666;7.630;2023-12-22T01:04:43;10.38;;;2.10;;
7523;SDS011;3803;51.666;7.630;2023-12-22T01:05:04;10.50;;;2.28;;
7523;SDS011;3803;51.666;7.630;2023-12-22T01:05:25;4.38;;;2.05;;
7523;SDS011;3803;51.666;7.630;2023-12-22T01:05:46;5.00;;;2.00;;
7523;SDS011;3803;51.666;7.630;2023-12-22T01:06:06;9.02;;;1.80;;
7523;SDS011;3803;51.666;7.630;2023-12-22T01:06:27;10.17;;;1.90;;
7523;SDS011;3803;51.666;7.630;2023-12-22T01:06:47;13.90;;;2.05;;
7523;SDS011;3803;51.666;7.630;2023-12-22T01:07:08;9.70;;;2.00;;
7523;SDS011;3803;51.666;7.630;2023-12-22T01:07:29;8.45;;;1.88;;
7523;SDS011;3803;51.666;7.630;2023-12-22T01:07:50;4.00;;;1.80;;
7523;SDS011;3803;51.666;7.630;2023-12-22T01:08:11;6.85;;;1.83;;
7523;SDS011;3803;51.666;7.630;2023-12-22T01:08:32;10.13;;;2.13;;
7523;SDS011;3803;51.666;7.630;2023-12-22T01:08:52;11.88;;;2.25;;
7523;SDS011;3803;51.666;7.630;2023-12-22T01:09:14;11.13;;;2.35;;
7523;SDS011;3803;51.666;7.630;2023-12-22T01:09:35;6.97;;;2.13;;
7523;SDS011;3803;51.666;7.630;2023-12-22T01:09:57;7.45;;;1.92;;
7523;SDS011;3803;51.666;7.630;2023-12-22T01:10:22;8.77;;;1.90;;
7523;SDS011;3803;51.666;7.630;2023-12-22T01:10:42;7.60;;;1.63;;
7523;SDS011;3803;51.666;7.630;2023-12-22T01:11:03;4.90;;;1.80;;
7523;SDS011;3803;51.666;7.630;2023-12-22T01:11:23;7.32;;;2.13;;
7523;SDS011;3803;51.666;7.630;2023-12-22T01:11:44;8.15;;;2.20;;
7523;SDS011;3803;51.666;7.630;2023-12-22T01:12:05;6.80;;;1.97;;
7523;SDS011;3803;51.666;7.630;2023-12-22T01:12:27;4.65;;;1.80;;
7523;SDS011;3803;51.666;7.630;2023-12-22T01:12:48;4.70;;;1.80;;
7523;SDS011;3803;51.666;7.630;2023-12-22T01:13:09;6.55;;;2.00;;
7523;SDS011;3803;51.666;7.630;2023-12-22T01:13:30;9.07;;;2.42;;
7523;SDS011;3803;51.666;7.630;2023-12-22T01:13:51;9.13;;;2.28;;
7523;SDS011;3803;51.666;7.630;2023-12-22T01:14:12;11.00;;;2.03;;
7523;SDS011;3803;51.666;7.630;2023-12-22T01:14:35;9.77;;;1.85;;
7523;SDS011;3803;51.666;7.630;2023-12-22T01:14:56;7.63;;;1.88;;
7523;SDS011;3803;51.666;7.630;2023-12-22T01:15:17;6.80;;;1.92;;
7523;SDS011;3803;51.666;7.630;2023-12-22T01:15:38;6.90;;;1.90;;
7523;SDS011;3803;51.666;7.630;2023-12-22T01:15:58;7.70;;;2.10;;
7523;SDS011;3803;51.666;7.630;2023-12-22T01:16:19;4.30;;;1.63;;
7523;SDS011;3803;51.666;7.630;2023-12-22T01:16:42;3.28;;;1.48;;
7523;SDS011;3803;51.666;7.630;2023-12-22T01:17:03;8.30;;;1.53;;
7523;SDS011;3803;51.666;7.630;2023-12-22T01:17:23;12.20;;;2.03;;
7523;SDS011;3803;51.666;7.630;2023-12-22T01:17:44;13.60;;;2.17;;
7523;SDS011;3803;51.666;7.630;2023-12-22T01:18:05;7.70;;;1.90;;
7523;SDS011;3803;51.666;7.630;2023-12-22T01:18:25;6.70;;;1.70;;
7523;SDS011;3803;51.666;7.630;2023-12-22T01:18:49;6.03;;;1.80;;
7523;SDS011;3803;51.666;7.630;2023-12-22T01:19:13;6.32;;;2.05;;
7523;SDS011;3803;51.666;7.630;2023-12-22T01:19:33;7.93;;;2.13;;
7523;SDS011;3803;51.666;7.630;2023-12-22T01:19:54;7.53;;;2.00;;
7523;SDS011;3803;51.666;7.630;2023-12-22T01:20:15;8.48;;;2.05;;
7523;SDS011;3803;51.666;7.630;2023-12-22T01:20:35;10.90;;;2.28;;
7523;SDS011;3803;51.666;7.630;2023-12-22T01:20:56;11.10;;;2.47;;
7523;SDS011;3803;51.666;7.630;2023-12-22T01:21:17;8.63;;;2.15;;
7523;SDS011;3803;51.666;7.630;2023-12-22T01:21:37;4.38;;;2.00;;
7523;SDS011;3803;51.666;7.630;2023-12-22T01:21:58;4.13;;;1.70;;
7523;SDS011;3803;51.666;7.630;2023-12-22T01:22:19;5.35;;;2.05;;
7523;SDS011;3803;51.666;7.630;2023-12-22T01:22:40;5.03;;;2.17;;
7523;SDS011;3803;51.666;7.630;2023-12-22T01:23:01;8.50;;;2.28;;
7523;SDS011;3803;51.666;7.630;2023-12-22T01:23:21;7.78;;;2.25;;
7523;SDS011;3803;51.666;7.630;2023-12-22T01:23:42;6.63;;;1.90;;
7523;SDS011;3803;51.666;7.630;2023-12-22T01:24:03;3.88;;;1.83;;
7523;SDS011;3803;51.666;7.630;2023-12-22T01:24:23;6.00;;;2.00;;
7523;SDS011;3803;51.666;7.630;2023-12-22T01:24:44;8.73;;;2.20;;
7523;SDS011;3803;51.666;7.630;2023-12-22T01:25:05;13.00;;;2.30;;
7523;SDS011;3803;51.666;7.630;2023-12-22T01:25:26;11.23;;;2.25;;
7523;SDS011;3803;51.666;7.630;2023-12-22T01:25:47;7.95;;;2.10;;
7523;SDS011;3803;51.666;7.630;2023-12-22T01:26:07;5.80;;;1.83;;
7523;SDS011;3803;51.666;7.630;2023-12-22T01:26:28;9.07;;;1.88;;
7523;SDS011;3803;51.666;7.630;2023-12-22T01:26:49;12.50;;;2.30;;
7523;SDS011;3803;51.666;7.630;2023-12-22T01:27:10;13.52;;;2.58;;
7523;SDS011;3803;51.666;7.630;2023-12-22T01:27:31;9.65;;;2.22;;
7523;SDS011;3803;51.666;7.630;2023-12-22T01:27:51;7.05;;;1.98;;
7523;SDS011;3803;51.666;7.630;2023-12-22T01:28:12;8.23;;;1.85;;
7523;SDS011;3803;51.666;7.630;2023-12-22T01:28:35;8.55;;;1.92;;
7523;SDS011;3803;51.666;7.630;2023-12-22T01:28:56;6.70;;;2.05;;
7523;SDS011;3803;51.666;7.630;2023-12-22T01:29:17;4.32;;;2.17;;
7523;SDS011;3803;51.666;7.630;2023-12-22T01:29:37;6.40;;;2.20;;
7523;SDS011;3803;51.666;7.630;2023-12-22T01:29:58;6.53;;;2.15;;
7523;SDS011;3803;51.666;7.630;2023-12-22T01:30:19;6.15;;;2.00;;
7523;SDS011;3803;51.666;7.630;2023-12-22T01:30:39;4.10;;;1.83;;
7523;SDS011;3803;51.666;7.630;2023-12-22T01:31:00;4.10;;;1.83;;
7523;SDS011;3803;51.666;7.630;2023-12-22T01:31:22;5.43;;;1.85;;
7523;SDS011;3803;51.666;7.630;2023-12-22T01:31:42;5.55;;;2.28;;
7523;SDS011;3803;51.666;7.630;2023-12-22T01:32:04;5.90;;;2.13;;
7523;SDS011;3803;51.666;7.630;2023-12-22T01:32:25;5.80;;;2.20;;
7523;SDS011;3803;51.666;7.630;2023-12-22T01:32:45;5.93;;;2.00;;
7523;SDS011;3803;51.666;7.630;2023-12-22T01:33:06;7.18;;;2.17;;
7523;SDS011;3803;51.666;7.630;2023-12-22T01:33:27;10.13;;;1.88;;
7523;SDS011;3803;51.666;7.630;2023-12-22T01:33:50;9.63;;;1.90;;
7523;SDS011;3803;51.666;7.630;2023-12-22T01:34:11;10.48;;;1.95;;
7523;SDS011;3803;51.666;7.630;2023-12-22T01:34:31;8.10;;;2.30;;
7523;SDS011;3803;51.666;7.630;2023-12-22T01:34:52;11.13;;;2.10;;
7523;SDS011;3803;51.666;7.630;2023-12-22T01:35:12;9.80;;;1.90;;
7523;SDS011;3803;51.666;7.630;2023-12-22T01:35:34;6.97;;;1.58;;
7523;SDS011;3803;51.666;7.630;2023-12-22T01:35:57;3.55;;;1.60;;
7523;SDS011;3803;51.666;7.630;2023-12-22T01:36:18;6.40;;;1.90;;
7523;SDS011;3803;51.666;7.630;2023-12-22T01:36:38;9.32;;;1.88;;
7523;SDS011;3803;51.666;7.630;2023-12-22T01:36:59;8.52;;;1.73;;
7523;SDS011;3803;51.666;7.630;2023-12-22T01:37:19;7.60;;;1.70;;
7523;SDS011;3803;51.666;7.630;2023-12-22T01:37:40;5.50;;;1.85;;
7523;SDS011;3803;51.666;7.630;2023-12-22T01:38:01;6.55;;;1.92;;
7523;SDS011;3803;51.666;7.630;2023-12-22T01:38:21;8.30;;;2.07;;
7523;SDS011;3803;51.666;7.630;2023-12-22T01:38:42;8.35;;;2.30;;
7523;SDS011;3803;51.666;7.630;2023-12-22T01:39:03;6.50;;;2.38;;
7523;SDS011;3803;51.666;7.630;2023-12-22T01:39:24;3.58;;;2.00;;
7523;SDS011;3803;51.666;7.630;2023-12-22T01:39:45;4.13;;;1.90;;
7523;SDS011;3803;51.666;7.630;2023-12-22T01:40:06;7.10;;;2.08;;
7523;SDS011;3803;51.666;7.630;2023-12-22T01:40:27;6.57;;;2.03;;
7523;SDS011;3803;51.666;7.630;2023-12-22T01:40:48;5.50;;;1.70;;
7523;SDS011;3803;51.666;7.630;2023-12-22T01:41:09;4.72;;;1.52;;
7523;SDS011;3803;51.666;7.630;2023-12-22T01:41:29;5.60;;;1.83;;
7523;SDS011;3803;51.666;7.630;2023-12-22T01:41:50;3.80;;;1.80;;
7523;SDS011;3803;51.666;7.630;2023-12-22T01:42:10;3.23;;;1.60;;
7523;SDS011;3803;51.666;7.630;2023-12-22T01:42:31;4.70;;;1.60;;
7523;SDS011;3803;51.666;7.630;2023-12-22T01:42:52;9.50;;;1.92;;
7523;SDS011;3803;51.666;7.630;2023-12-22T01:43:12;9.07;;;2.00;;
7523;SDS011;3803;51.666;7.630;2023-12-22T01:43:41;8.55;;;1.95;;
7523;SDS011;3803;51.666;7.630;2023-12-22T01:44:02;4.30;;;1.60;;
7523;SDS011;3803;51.666;7.630;2023-12-22T01:44:23;4.80;;;1.65;;
7523;SDS011;3803;51.666;7.630;2023-12-22T01:44:43;5.32;;;1.70;;
7523;SDS011;3803;51.666;7.630;2023-12-22T01:45:04;5.53;;;1.80;;
7523;SDS011;3803;51.666;7.630;2023-12-22T01:45:26;4.45;;;1.90;;
7523;SDS011;3803;51.666;7.630;2023-12-22T01:45:50;3.80;;;1.90;;
7523;SDS011;3803;51.666;7.630;2023-12-22T01:46:15;4.78;;;1.85;;
7523;SDS011;3803;51.666;7.630;2023-12-22T01:46:36;5.28;;;1.80;;
7523;SDS011;3803;51.666;7.630;2023-12-22T01:46:58;3.63;;;1.70;;
7523;SDS011;3803;51.666;7.630;2023-12-22T01:47:19;6.18;;;1.80;;
7523;SDS011;3803;51.666;7.630;2023-12-22T01:47:40;6.60;;;1.98;;
7523;SDS011;3803;51.666;7.630;2023-12-22T01:48:02;6.45;;;1.80;;
7523;SDS011;3803;51.666;7.630;2023-12-22T01:48:23;5.22;;;2.03;;
7523;SDS011;3803;51.666;7.630;2023-12-22T01:48:45;5.55;;;2.20;;
7523;SDS011;3803;51.666;7.630;2023-12-22T01:49:05;5.60;;;2.03;;
7523;SDS011;3803;51.666;7.630;2023-12-22T01:49:27;4.28;;;1.52;;
7523;SDS011;3803;51.666;7.630;2023-12-22T01:49:49;2.95;;;1.38;;
7523;SDS011;3803;51.666;7.630;2023-12-22T01:55:41;9.77;;;2.10;;
7523;SDS011;3803;51.666;7.630;2023-12-22T01:56:02;8.68;;;2.10;;
7523;SDS011;3803;51.666;7.630;2023-12-22T01:56:23;5.38;;;1.65;;
7523;SDS011;3803;51.666;7.630;2023-12-22T01:56:44;5.75;;;1.70;;
7523;SDS011;3803;51.666;7.630;2023-12-22T01:57:06;6.95;;;1.85;;
7523;SDS011;3803;51.666;7.630;2023-12-22T01:57:26;5.10;;;2.00;;
7523;SDS011;3803;51.666;7.630;2023-12-22T01:57:47;3.67;;;1.73;;
7523;SDS011;3803;51.666;7.630;2023-12-22T01:58:09;2.30;;;1.58;;
7523;SDS011;3803;51.666;7.630;2023-12-22T01:58:31;3.50;;;1.40;;
7523;SDS011;3803;51.666;7.630;2023-12-22T01:59:03;5.10;;;1.50;;
7523;SDS011;3803;51.666;7.630;2023-12-22T01:59:24;5.75;;;1.60;;
7523;SDS011;3803;51.666;7.630;2023-12-22T01:59:45;7.00;;;1.90;;
7523;SDS011;3803;51.666;7.630;2023-12-22T02:00:07;5.53;;;1.80;;
7523;SDS011;3803;51.666;7.630;2023-12-22T02:00:31;2.80;;;1.50;;
7523;SDS011;3803;51.666;7.630;2023-12-22T02:00:52;3.30;;;1.63;;
7523;SDS011;3803;51.666;7.630;2023-12-22T02:01:14;3.65;;;1.65;;
7523;SDS011;3803;51.666;7.630;2023-12-22T02:01:35;4.72;;;1.80;;
7523;SDS011;3803;51.666;7.630;2023-12-22T02:01:56;4.18;;;1.67;;
7523;SDS011;3803;51.666;7.630;2023-12-22T02:02:16;4.10;;;1.80;;
7523;SDS011;3803;51.666;7.630;2023-12-22T02:02:37;3.63;;;1.73;;
7523;SDS011;3803;51.666;7.630;2023-12-22T02:03:00;5.10;;;1.90;;
7523;SDS011;3803;51.666;7.630;2023-12-22T02:03:21;5.43;;;2.03;;
7523;SDS011;3803;51.666;7.630;2023-12-22T02:03:42;4.80;;;1.95;;
7523;SDS011;3803;51.666;7.630;2023-12-22T02:04:03;5.93;;;1.77;;
7523;SDS011;3803;51.666;7.630;2023-12-22T02:04:24;5.65;;;1.50;;
7523;SDS011;3803;51.666;7.630;2023-12-22T02:04:46;7.70;;;1.60;;
7523;SDS011;3803;51.666;7.630;2023-12-22T02:05:16;5.55;;;1.60;;
7523;SDS011;3803;51.666;7.630;2023-12-22T02:05:38;7.93;;;2.20;;
7523;SDS011;3803;51.666;7.630;2023-12-22T02:06:01;7.57;;;2.22;;
7523;SDS011;3803;51.666;7.630;2023-12-22T02:06:22;4.30;;;1.80;;
7523;SDS011;3803;51.666;7.630;2023-12-22T02:06:42;3.70;;;1.60;;
7523;SDS011;3803;51.666;7.630;2023-12-22T02:07:04;3.78;;;1.50;;
7523;SDS011;3803;51.666;7.630;2023-12-22T02:07:31;4.10;;;1.70;;
7523;SDS011;3803;51.666;7.630;2023-12-22T02:07:52;5.07;;;1.70;;
7523;SDS011;3803;51.666;7.630;2023-12-22T02:08:13;5.47;;;1.52;;
7523;SDS011;3803;51.666;7.630;2023-12-22T02:08:35;6.05;;;1.60;;
7523;SDS011;3803;51.666;7.630;2023-12-22T02:08:57;8.10;;;1.60;;
7523;SDS011;3803;51.666;7.630;2023-12-22T02:09:18;8.23;;;1.90;;
7523;SDS011;3803;51.666;7.630;2023-12-22T02:09:39;5.50;;;1.70;;
7523;SDS011;3803;51.666;7.630;2023-12-22T02:09:59;4.10;;;1.73;;
7523;SDS011;3803;51.666;7.630;2023-12-22T02:10:21;6.07;;;1.83;;
7523;SDS011;3803;51.666;7.630;2023-12-22T02:10:44;6.50;;;1.90;;
7523;SDS011;3803;51.666;7.630;2023-12-22T02:11:05;4.70;;;1.85;;
7523;SDS011;3803;51.666;7.630;2023-12-22T02:11:26;3.60;;;1.53;;
7523;SDS011;3803;51.666;7.630;2023-12-22T02:11:46;5.32;;;1.83;;
7523;SDS011;3803;51.666;7.630;2023-12-22T02:12:07;6.53;;;1.83;;
7523;SDS011;3803;51.666;7.630;2023-12-22T02:12:28;9.10;;;2.17;;
7523;SDS011;3803;51.666;7.630;2023-12-22T02:12:48;7.23;;;1.73;;
7523;SDS011;3803;51.666;7.630;2023-12-22T02:13:09;6.32;;;1.73;;
7523;SDS011;3803;51.666;7.630;2023-12-22T02:13:30;3.83;;;1.52;;
7523;SDS011;3803;51.666;7.630;2023-12-22T02:13:51;4.88;;;1.77;;
7523;SDS011;3803;51.666;7.630;2023-12-22T02:14:13;4.32;;;1.80;;
7523;SDS011;3803;51.666;7.630;2023-12-22T02:14:37;7.35;;;1.60;;
7523;SDS011;3803;51.666;7.630;2023-12-22T02:14:58;8.43;;;1.60;;
7523;SDS011;3803;51.666;7.630;2023-12-22T02:15:19;8.65;;;1.45;;
7523;SDS011;3803;51.666;7.630;2023-12-22T02:15:39;5.25;;;1.63;;
7523;SDS011;3803;51.666;7.630;2023-12-22T02:16:03;5.20;;;1.70;;
7523;SDS011;3803;51.666;7.630;2023-12-22T02:17:48;9.25;;;2.00;;
7523;SDS011;3803;51.666;7.630;2023-12-22T02:18:25;7.85;;;1.80;;
7523;SDS011;3803;51.666;7.630;2023-12-22T02:18:51;5.50;;;1.92;;
7523;SDS011;3803;51.666;7.630;2023-12-22T02:19:43;3.37;;;1.60;;
7523;SDS011;3803;51.666;7.630;2023-12-22T02:20:09;3.60;;;1.77;;
7523;SDS011;3803;51.666;7.630;2023-12-22T02:20:31;6.30;;;2.17;;
7523;SDS011;3803;51.666;7.630;2023-12-22T02:20:52;6.13;;;2.10;;